createdAt,value
2022-10-24T00:01:23.329Z,3.70
2022-10-24T00:05:25.876Z,2.30
2022-10-24T00:09:27.486Z,3.28
2022-10-24T00:13:29.561Z,2.60
2022-10-24T00:17:31.361Z,3.75
2022-10-24T00:21:32.998Z,2.97
2022-10-24T00:25:34.758Z,1.63
2022-10-24T00:29:36.391Z,2.53
2022-10-24T00:33:38.032Z,2.97
2022-10-24T00:37:39.634Z,3.05
2022-10-24T00:41:42.975Z,4.85
2022-10-24T00:45:53.092Z,2.15
2022-10-24T00:50:07.096Z,2.10
2022-10-24T00:54:12.202Z,2.47
2022-10-24T00:58:15.644Z,2.67
2022-10-24T01:02:17.426Z,3.78
2022-10-24T01:06:37.508Z,2.65
2022-10-24T01:10:57.567Z,1.73
2022-10-24T01:15:20.489Z,1.95
2022-10-24T01:19:50.119Z,2.47
2022-10-24T01:24:02.974Z,2.67
2022-10-24T01:28:27.401Z,2.38
2022-10-24T01:32:41.597Z,2.08
2022-10-24T01:36:51.344Z,2.53
2022-10-24T01:41:17.154Z,2.10
2022-10-24T01:45:27.440Z,1.50
2022-10-24T01:49:33.879Z,3.33
2022-10-24T01:53:37.139Z,2.10
2022-10-24T01:57:39.674Z,1.77
2022-10-24T02:01:41.396Z,2.75
2022-10-24T02:05:47.935Z,2.17
2022-10-24T02:10:02.667Z,2.17
2022-10-24T02:14:25.427Z,1.50
2022-10-24T02:18:29.483Z,2.15
2022-10-24T02:22:51.263Z,3.03
2022-10-24T02:27:02.502Z,2.40
2022-10-24T02:31:09.653Z,1.83
2022-10-24T02:35:13.810Z,1.55
2022-10-24T02:39:16.401Z,1.67
2022-10-24T02:43:21.090Z,1.52
2022-10-24T02:47:25.838Z,2.10
2022-10-24T02:51:31.868Z,2.30
2022-10-24T02:59:34.983Z,2.25
2022-10-24T03:03:36.704Z,1.80
2022-10-24T03:07:38.310Z,3.70
2022-10-24T03:11:40.323Z,2.33
2022-10-24T03:15:41.943Z,2.03
2022-10-24T03:19:45.089Z,2.17
2022-10-24T03:23:46.882Z,3.67
2022-10-24T03:27:48.454Z,1.73
2022-10-24T03:31:50.049Z,1.27
2022-10-24T03:35:53.472Z,2.20
2022-10-24T03:39:55.088Z,4.05
2022-10-24T03:43:57.198Z,1.67
2022-10-24T03:47:58.885Z,2.08
2022-10-24T03:52:00.618Z,1.50
2022-10-24T03:56:02.235Z,1.52
2022-10-24T04:00:05.126Z,1.30
2022-10-24T04:04:06.935Z,1.90
2022-10-24T04:08:08.567Z,2.05
2022-10-24T04:12:10.246Z,2.17
2022-10-24T04:16:11.826Z,2.00
2022-10-24T04:20:13.478Z,1.73
2022-10-24T04:24:16.242Z,1.50
2022-10-24T04:28:17.863Z,1.65
2022-10-24T04:32:19.468Z,2.15
2022-10-24T04:36:21.140Z,1.65
2022-10-24T04:40:22.895Z,2.67
2022-10-24T04:44:24.542Z,1.30
2022-10-24T04:48:26.174Z,1.45
2022-10-24T04:52:27.923Z,2.10
2022-10-24T04:56:29.600Z,1.45
2022-10-24T05:00:31.247Z,1.65
2022-10-24T05:04:32.941Z,1.65
2022-10-24T05:08:34.591Z,1.35
2022-10-24T05:12:36.493Z,2.15
2022-10-24T05:16:39.708Z,3.15
2022-10-24T05:24:47.843Z,1.85
2022-10-24T05:28:52.441Z,1.30
2022-10-24T05:32:54.408Z,3.15
2022-10-24T05:36:56.000Z,2.42
2022-10-24T05:40:57.672Z,3.70
2022-10-24T05:44:59.297Z,3.08
2022-10-24T05:49:00.933Z,2.00
2022-10-24T05:53:02.903Z,3.15
2022-10-24T05:57:04.952Z,11.00
2022-10-24T06:01:06.649Z,2.58
2022-10-24T06:05:09.955Z,5.30
2022-10-24T06:09:12.601Z,4.78
2022-10-24T06:13:14.656Z,2.42
2022-10-24T06:17:16.461Z,8.70
2022-10-24T06:21:18.128Z,5.55
2022-10-24T06:25:19.849Z,5.82
2022-10-24T06:29:23.261Z,4.38
2022-10-24T06:33:24.901Z,8.85
2022-10-24T06:37:26.719Z,11.02
2022-10-24T06:41:28.766Z,4.53
2022-10-24T06:45:30.357Z,4.95
2022-10-24T06:49:32.032Z,8.40
2022-10-24T06:53:34.333Z,8.65
2022-10-24T06:57:36.007Z,6.95
2022-10-24T07:01:37.832Z,8.52
2022-10-24T07:05:40.139Z,5.85
2022-10-24T07:09:41.757Z,7.65
2022-10-24T07:13:43.418Z,7.25
2022-10-24T07:17:45.570Z,8.02
2022-10-24T07:21:47.202Z,7.68
2022-10-24T07:25:48.882Z,5.65
2022-10-24T07:29:51.495Z,6.53
2022-10-24T07:33:53.643Z,5.82
2022-10-24T07:37:55.407Z,5.78
2022-10-24T07:41:57.075Z,6.75
2022-10-24T07:45:58.760Z,5.57
2022-10-24T07:50:00.356Z,5.18
2022-10-24T07:54:02.198Z,5.50
2022-10-24T07:58:03.892Z,4.20
2022-10-24T08:02:05.608Z,6.15
2022-10-24T08:06:09.538Z,7.50
2022-10-24T08:10:12.873Z,4.03
2022-10-24T08:14:14.533Z,4.97
2022-10-24T08:18:16.153Z,5.07
2022-10-24T08:22:17.786Z,5.90
2022-10-24T08:26:21.946Z,5.93
2022-10-24T08:30:24.651Z,2.55
2022-10-24T08:34:26.287Z,4.22
2022-10-24T08:38:28.950Z,6.53
2022-10-24T08:42:30.573Z,3.83
2022-10-24T08:46:49.120Z,7.45
2022-10-24T08:50:55.070Z,9.00
2022-10-24T08:55:04.730Z,9.73
2022-10-24T08:59:12.491Z,4.57
2022-10-24T09:03:17.661Z,3.25
2022-10-24T09:11:47.564Z,5.35
2022-10-24T09:15:49.847Z,5.07
2022-10-24T09:20:26.174Z,4.97
2022-10-24T09:24:45.742Z,6.50
2022-10-24T09:28:47.422Z,4.90
2022-10-24T09:32:49.330Z,4.60
2022-10-24T09:36:51.695Z,4.10
2022-10-24T09:41:00.728Z,5.43
2022-10-24T09:45:35.348Z,3.40
2022-10-24T09:49:41.303Z,3.47
2022-10-24T09:54:01.892Z,2.38
2022-10-24T09:58:05.439Z,6.32
2022-10-24T10:02:27.120Z,4.70
2022-10-24T10:06:28.913Z,6.55
2022-10-24T10:10:33.873Z,3.33
2022-10-24T10:14:41.627Z,4.70
2022-10-24T10:18:46.473Z,3.60
2022-10-24T10:22:48.088Z,2.92
2022-10-24T10:26:49.807Z,5.10
2022-10-24T10:30:55.774Z,3.45
2022-10-24T10:35:13.013Z,4.95
2022-10-24T10:39:48.290Z,3.13
2022-10-24T10:44:01.870Z,3.63
2022-10-24T10:48:15.682Z,2.03
2022-10-24T10:52:30.846Z,3.45
2022-10-24T10:56:49.830Z,4.90
2022-10-24T11:01:08.997Z,4.07
2022-10-24T11:05:29.406Z,2.38
2022-10-24T11:10:03.309Z,4.18
2022-10-24T11:14:14.809Z,3.75
2022-10-24T11:18:30.457Z,5.35
2022-10-24T11:22:41.915Z,3.13
2022-10-24T11:26:52.325Z,3.55
2022-10-24T11:31:09.070Z,2.75
2022-10-24T11:35:17.671Z,2.38
2022-10-24T11:39:42.542Z,3.03
2022-10-24T11:43:47.244Z,2.53
2022-10-24T11:48:22.195Z,1.55
2022-10-24T11:52:28.658Z,3.15
2022-10-24T11:56:51.690Z,3.53
2022-10-24T12:01:11.353Z,3.30
2022-10-24T12:05:34.729Z,4.95
2022-10-24T12:10:03.718Z,2.42
2022-10-24T12:14:38.567Z,2.45
2022-10-24T12:18:45.815Z,2.35
2022-10-24T12:22:49.771Z,2.25
2022-10-24T12:26:56.941Z,2.50
2022-10-24T12:31:12.968Z,1.52
2022-10-24T12:35:44.538Z,3.83
2022-10-24T12:39:54.833Z,3.47
2022-10-24T12:44:34.110Z,2.35
2022-10-24T12:48:37.082Z,2.00
2022-10-24T12:52:38.636Z,3.00
2022-10-24T12:56:49.499Z,2.50
2022-10-24T13:01:10.663Z,1.73
2022-10-24T13:05:22.171Z,3.03
2022-10-24T13:10:00.060Z,1.63
2022-10-24T13:14:07.798Z,1.70
2022-10-24T13:18:27.802Z,2.42
2022-10-24T13:22:33.547Z,4.88
2022-10-24T13:26:47.319Z,2.10
2022-10-24T13:30:56.155Z,2.83
2022-10-24T13:34:59.755Z,1.58
2022-10-24T13:39:04.767Z,2.60
2022-10-24T13:43:15.339Z,2.35
2022-10-24T13:47:41.672Z,2.53
2022-10-24T13:51:53.549Z,1.75
2022-10-24T13:55:55.898Z,2.30
2022-10-24T14:00:01.410Z,2.20
2022-10-24T14:04:03.162Z,1.75
2022-10-24T14:08:06.957Z,2.45
2022-10-24T14:12:19.299Z,1.85
2022-10-24T14:16:32.677Z,4.15
2022-10-24T14:20:37.822Z,3.15
2022-10-24T14:24:44.027Z,3.33
2022-10-24T14:28:58.601Z,1.30
2022-10-24T14:33:13.860Z,2.90
2022-10-24T14:37:24.628Z,1.00
2022-10-24T14:41:29.995Z,1.02
2022-10-24T14:45:31.731Z,0.88
2022-10-24T14:49:36.828Z,0.90
2022-10-24T14:53:39.606Z,1.75
2022-10-24T14:57:48.896Z,1.42
2022-10-24T15:02:18.545Z,0.98
2022-10-24T15:06:44.022Z,2.08
2022-10-24T15:10:45.993Z,1.52
2022-10-24T15:14:49.093Z,2.25
2022-10-24T15:18:54.512Z,1.05
2022-10-24T15:22:59.387Z,1.43
2022-10-24T15:27:13.086Z,1.83
2022-10-24T15:31:18.097Z,0.90
2022-10-24T15:35:19.712Z,1.58
2022-10-24T15:39:27.364Z,0.88
2022-10-24T15:43:29.375Z,1.00
2022-10-24T15:47:31.205Z,1.52
2022-10-24T15:51:33.113Z,1.95
2022-10-24T15:55:34.790Z,1.60
2022-10-24T15:59:36.494Z,1.90
2022-10-24T16:03:38.091Z,2.15
2022-10-24T16:07:39.661Z,0.93
2022-10-24T16:11:41.257Z,1.08
2022-10-24T16:15:43.530Z,2.47
2022-10-24T16:19:45.351Z,1.38
2022-10-24T16:23:48.416Z,2.25
2022-10-24T16:27:51.171Z,2.33
2022-10-24T16:31:52.795Z,0.77
2022-10-24T16:35:54.445Z,0.85
2022-10-24T16:39:56.127Z,0.75
2022-10-24T16:43:58.094Z,1.58
2022-10-24T16:47:59.931Z,1.23
2022-10-24T16:52:01.539Z,1.23
2022-10-24T16:56:03.199Z,0.93
2022-10-24T17:00:06.221Z,0.60
2022-10-24T17:04:08.121Z,0.60
2022-10-24T17:08:09.913Z,1.60
2022-10-24T17:12:12.731Z,1.38
2022-10-24T17:16:14.329Z,1.00
2022-10-24T17:20:17.177Z,1.67
2022-10-24T17:24:21.883Z,1.00
2022-10-24T17:28:23.710Z,0.43
2022-10-24T17:32:25.405Z,0.85
2022-10-24T17:36:32.653Z,1.00
2022-10-24T17:40:47.100Z,0.73
2022-10-24T17:44:49.229Z,0.63
2022-10-24T17:48:51.036Z,0.93
2022-10-24T17:52:52.670Z,0.93
2022-10-24T17:56:54.353Z,0.55
2022-10-24T18:00:56.053Z,0.52
2022-10-24T18:04:57.775Z,1.52
2022-10-24T18:08:59.709Z,0.90
2022-10-24T18:13:01.819Z,0.80
2022-10-24T18:17:03.564Z,0.55
2022-10-24T18:21:27.221Z,0.55
2022-10-24T18:25:29.130Z,0.50
2022-10-24T18:29:30.922Z,2.28
2022-10-24T18:33:33.001Z,3.80
2022-10-24T18:37:35.691Z,1.88
2022-10-24T18:41:45.025Z,3.15
2022-10-24T18:45:48.163Z,0.80
2022-10-24T18:49:50.391Z,0.70
2022-10-24T18:53:53.808Z,1.25
2022-10-24T18:57:55.537Z,1.50
2022-10-24T19:02:13.946Z,1.52
2022-10-24T19:06:24.374Z,2.58
2022-10-24T19:10:27.671Z,1.50
2022-10-24T19:14:29.416Z,0.88
2022-10-24T19:18:34.305Z,0.98
2022-10-24T19:22:35.925Z,1.38
2022-10-24T19:26:37.507Z,1.02
2022-10-24T19:30:42.170Z,3.17
2022-10-24T19:34:43.902Z,2.70
2022-10-24T19:47:40.170Z,1.65
2022-10-24T19:51:41.829Z,1.50
2022-10-24T19:55:44.469Z,1.80
2022-10-24T19:59:46.099Z,1.63
2022-10-24T20:03:49.432Z,2.47
2022-10-24T20:07:51.171Z,1.42
2022-10-24T20:11:52.757Z,0.63
2022-10-24T20:15:55.043Z,1.70
2022-10-24T20:19:56.602Z,4.68
2022-10-24T20:23:58.164Z,1.45
2022-10-24T20:28:01.142Z,0.68
2022-10-24T20:32:02.828Z,1.58
2022-10-24T20:36:04.566Z,1.00
2022-10-24T20:44:47.959Z,3.28
2022-10-24T20:48:50.473Z,3.33
2022-10-24T20:52:52.440Z,2.17
2022-10-24T20:56:54.069Z,1.30
2022-10-24T21:00:55.745Z,0.93
2022-10-24T21:04:57.393Z,0.55
2022-10-24T21:13:08.521Z,0.98
2022-10-24T21:17:10.501Z,2.45
2022-10-24T21:21:15.363Z,0.70
2022-10-24T21:25:17.155Z,0.95
2022-10-24T21:29:32.906Z,0.55
2022-10-24T21:33:37.696Z,3.75
2022-10-24T21:37:39.285Z,0.65
2022-10-24T21:41:41.152Z,1.02
2022-10-24T21:45:42.722Z,5.18
2022-10-24T21:49:44.331Z,1.05
2022-10-24T21:53:51.674Z,1.67
2022-10-24T21:57:53.247Z,0.65
2022-10-24T22:01:54.935Z,1.48
2022-10-24T22:05:57.221Z,0.68
2022-10-24T22:09:58.809Z,3.25
2022-10-24T22:14:00.843Z,0.70
2022-10-24T22:18:02.428Z,2.28
2022-10-24T22:22:04.052Z,0.73
2022-10-24T22:26:05.637Z,0.55
2022-10-24T22:30:07.638Z,1.05
2022-10-24T22:34:14.473Z,2.75
2022-10-24T22:38:16.401Z,1.08
2022-10-24T22:42:20.234Z,2.55
2022-10-24T22:46:49.899Z,1.65
2022-10-24T22:50:54.128Z,3.28
2022-10-24T22:54:56.208Z,0.93
2022-10-24T22:58:58.048Z,1.30
2022-10-24T23:03:15.280Z,2.47
2022-10-24T23:07:27.674Z,1.30
2022-10-24T23:11:30.503Z,0.60
2022-10-24T23:15:32.477Z,1.08
2022-10-24T23:19:34.773Z,1.08
2022-10-24T23:23:36.608Z,1.25
2022-10-24T23:27:41.308Z,1.20
2022-10-24T23:31:43.232Z,1.67
2022-10-24T23:35:44.930Z,0.90
2022-10-24T23:39:46.981Z,1.13
2022-10-24T23:43:48.842Z,1.13
2022-10-24T23:48:02.156Z,1.52
2022-10-24T23:52:39.731Z,2.63
2022-10-24T23:56:41.589Z,1.05
